sensor_id;sensor_type;location;lat;lon;timestamp;temperature;humidity
49379;DHT22;35254;47.990;-1.608;2023-06-14T00:00:39;25.80;61.40
49379;DHT22;35254;47.990;-1.608;2023-06-14T00:03:08;25.80;62.40
49379;DHT22;35254;47.990;-1.608;2023-06-14T00:05:36;25.80;62.50
49379;DHT22;35254;47.990;-1.608;2023-06-14T00:08:09;25.80;63.50
49379;DHT22;35254;47.990;-1.608;2023-06-14T00:10:36;25.80;63.80
49379;DHT22;35254;47.990;-1.608;2023-06-14T00:13:03;25.80;63.90
49379;DHT22;35254;47.990;-1.608;2023-06-14T00:15:30;25.80;63.80
49379;DHT22;35254;47.990;-1.608;2023-06-14T00:17:56;25.80;63.90
49379;DHT22;35254;47.990;-1.608;2023-06-14T00:20:29;25.90;63.60
49379;DHT22;35254;47.990;-1.608;2023-06-14T00:22:56;25.90;63.90
49379;DHT22;35254;47.990;-1.608;2023-06-14T00:25:23;25.80;63.50
49379;DHT22;35254;47.990;-1.608;2023-06-14T00:27:49;25.80;63.60
49379;DHT22;35254;47.990;-1.608;2023-06-14T00:30:14;25.80;63.50
49379;DHT22;35254;47.990;-1.608;2023-06-14T00:32:40;25.80;63.90
49379;DHT22;35254;47.990;-1.608;2023-06-14T00:35:08;25.80;63.70
49379;DHT22;35254;47.990;-1.608;2023-06-14T00:37:35;25.80;63.30
49379;DHT22;35254;47.990;-1.608;2023-06-14T00:40:00;25.80;63.10
49379;DHT22;35254;47.990;-1.608;2023-06-14T00:42:27;25.80;63.20
49379;DHT22;35254;47.990;-1.608;2023-06-14T00:44:53;25.80;63.00
49379;DHT22;35254;47.990;-1.608;2023-06-14T00:47:19;25.70;62.60
49379;DHT22;35254;47.990;-1.608;2023-06-14T00:49:46;25.80;62.60
49379;DHT22;35254;47.990;-1.608;2023-06-14T00:52:13;25.80;62.40
49379;DHT22;35254;47.990;-1.608;2023-06-14T00:54:43;25.80;62.80
49379;DHT22;35254;47.990;-1.608;2023-06-14T00:57:12;25.80;62.70
49379;DHT22;35254;47.990;-1.608;2023-06-14T00:59:47;25.80;62.40
49379;DHT22;35254;47.990;-1.608;2023-06-14T01:02:13;25.80;62.50
49379;DHT22;35254;47.990;-1.608;2023-06-14T01:04:43;25.70;62.70
49379;DHT22;35254;47.990;-1.608;2023-06-14T01:15:13;25.70;61.90
49379;DHT22;35254;47.990;-1.608;2023-06-14T01:17:39;25.70;61.80
49379;DHT22;35254;47.990;-1.608;2023-06-14T01:20:12;25.70;61.70
49379;DHT22;35254;47.990;-1.608;2023-06-14T01:22:54;25.70;61.90
49379;DHT22;35254;47.990;-1.608;2023-06-14T01:25:21;25.70;61.60
49379;DHT22;35254;47.990;-1.608;2023-06-14T01:27:53;25.70;61.60
49379;DHT22;35254;47.990;-1.608;2023-06-14T01:30:20;25.70;61.50
49379;DHT22;35254;47.990;-1.608;2023-06-14T01:32:47;25.70;61.40
49379;DHT22;35254;47.990;-1.608;2023-06-14T01:35:13;25.70;61.50
49379;DHT22;35254;47.990;-1.608;2023-06-14T01:37:40;25.70;61.50
49379;DHT22;35254;47.990;-1.608;2023-06-14T01:40:08;25.70;61.70
49379;DHT22;35254;47.990;-1.608;2023-06-14T01:42:36;25.70;61.40
49379;DHT22;35254;47.990;-1.608;2023-06-14T01:45:04;25.70;61.50
49379;DHT22;35254;47.990;-1.608;2023-06-14T01:47:32;25.70;61.40
49379;DHT22;35254;47.990;-1.608;2023-06-14T01:49:58;25.60;61.50
49379;DHT22;35254;47.990;-1.608;2023-06-14T01:52:24;25.70;61.50
49379;DHT22;35254;47.990;-1.608;2023-06-14T01:54:50;25.60;61.40
49379;DHT22;35254;47.990;-1.608;2023-06-14T01:57:16;25.70;61.50
49379;DHT22;35254;47.990;-1.608;2023-06-14T01:59:42;25.60;61.20
49379;DHT22;35254;47.990;-1.608;2023-06-14T02:02:08;25.60;61.30
49379;DHT22;35254;47.990;-1.608;2023-06-14T02:04:34;25.60;61.30
49379;DHT22;35254;47.990;-1.608;2023-06-14T02:06:59;25.60;61.40
49379;DHT22;35254;47.990;-1.608;2023-06-14T02:09:25;25.60;61.50
49379;DHT22;35254;47.990;-1.608;2023-06-14T02:11:51;25.60;61.30
49379;DHT22;35254;47.990;-1.608;2023-06-14T02:14:16;25.60;61.40
49379;DHT22;35254;47.990;-1.608;2023-06-14T02:16:43;25.60;61.20
49379;DHT22;35254;47.990;-1.608;2023-06-14T02:19:15;25.60;61.20
49379;DHT22;35254;47.990;-1.608;2023-06-14T02:21:42;25.60;61.20
49379;DHT22;35254;47.990;-1.608;2023-06-14T02:24:08;25.60;61.20
49379;DHT22;35254;47.990;-1.608;2023-06-14T02:26:33;25.60;61.30
49379;DHT22;35254;47.990;-1.608;2023-06-14T02:28:59;25.50;61.30
49379;DHT22;35254;47.990;-1.608;2023-06-14T02:31:25;25.50;61.00
49379;DHT22;35254;47.990;-1.608;2023-06-14T02:33:51;25.50;61.00
49379;DHT22;35254;47.990;-1.608;2023-06-14T02:36:16;25.60;60.80
49379;DHT22;35254;47.990;-1.608;2023-06-14T02:38:42;25.50;61.10
49379;DHT22;35254;47.990;-1.608;2023-06-14T02:41:08;25.50;61.30
49379;DHT22;35254;47.990;-1.608;2023-06-14T02:43:33;25.50;61.10
49379;DHT22;35254;47.990;-1.608;2023-06-14T02:45:59;25.50;61.00
49379;DHT22;35254;47.990;-1.608;2023-06-14T02:48:25;25.50;61.30
49379;DHT22;35254;47.990;-1.608;2023-06-14T02:50:50;25.50;61.10
49379;DHT22;35254;47.990;-1.608;2023-06-14T02:53:16;25.50;61.30
49379;DHT22;35254;47.990;-1.608;2023-06-14T02:55:42;25.50;61.10
49379;DHT22;35254;47.990;-1.608;2023-06-14T02:58:08;25.50;61.30
49379;DHT22;35254;47.990;-1.608;2023-06-14T03:00:34;25.50;61.00
49379;DHT22;35254;47.990;-1.608;2023-06-14T03:03:01;25.50;61.20
49379;DHT22;35254;47.990;-1.608;2023-06-14T03:05:27;25.50;61.20
49379;DHT22;35254;47.990;-1.608;2023-06-14T03:07:53;25.50;61.20
49379;DHT22;35254;47.990;-1.608;2023-06-14T03:10:19;25.50;61.00
49379;DHT22;35254;47.990;-1.608;2023-06-14T03:12:46;25.50;61.10
49379;DHT22;35254;47.990;-1.608;2023-06-14T03:15:12;25.50;61.00
49379;DHT22;35254;47.990;-1.608;2023-06-14T03:17:42;25.50;61.20
49379;DHT22;35254;47.990;-1.608;2023-06-14T03:20:10;25.50;60.90
49379;DHT22;35254;47.990;-1.608;2023-06-14T03:22:37;25.50;60.80
49379;DHT22;35254;47.990;-1.608;2023-06-14T03:25:03;25.50;60.70
49379;DHT22;35254;47.990;-1.608;2023-06-14T03:27:30;25.40;61.00
49379;DHT22;35254;47.990;-1.608;2023-06-14T03:29:56;25.50;60.90
49379;DHT22;35254;47.990;-1.608;2023-06-14T03:32:21;25.50;60.80
49379;DHT22;35254;47.990;-1.608;2023-06-14T03:34:47;25.50;60.80
49379;DHT22;35254;47.990;-1.608;2023-06-14T03:37:13;25.40;60.80
49379;DHT22;35254;47.990;-1.608;2023-06-14T03:39:38;25.40;60.80
49379;DHT22;35254;47.990;-1.608;2023-06-14T03:42:12;25.40;60.70
49379;DHT22;35254;47.990;-1.608;2023-06-14T03:44:37;25.40;60.70
49379;DHT22;35254;47.990;-1.608;2023-06-14T03:47:04;25.40;60.60
49379;DHT22;35254;47.990;-1.608;2023-06-14T03:49:29;25.40;60.70
49379;DHT22;35254;47.990;-1.608;2023-06-14T03:51:55;25.40;60.70
49379;DHT22;35254;47.990;-1.608;2023-06-14T03:54:21;25.40;60.60
49379;DHT22;35254;47.990;-1.608;2023-06-14T03:56:47;25.40;60.40
49379;DHT22;35254;47.990;-1.608;2023-06-14T03:59:13;25.40;60.30
49379;DHT22;35254;47.990;-1.608;2023-06-14T04:01:38;25.40;60.30
49379;DHT22;35254;47.990;-1.608;2023-06-14T04:04:10;25.40;60.70
49379;DHT22;35254;47.990;-1.608;2023-06-14T04:06:35;25.40;60.30
49379;DHT22;35254;47.990;-1.608;2023-06-14T04:09:01;25.40;60.20
49379;DHT22;35254;47.990;-1.608;2023-06-14T04:11:27;25.40;60.30
49379;DHT22;35254;47.990;-1.608;2023-06-14T04:13:53;25.40;60.30
49379;DHT22;35254;47.990;-1.608;2023-06-14T04:16:21;25.40;60.40
49379;DHT22;35254;47.990;-1.608;2023-06-14T04:18:47;25.30;60.40
49379;DHT22;35254;47.990;-1.608;2023-06-14T04:21:13;25.40;60.60
49379;DHT22;35254;47.990;-1.608;2023-06-14T04:23:39;25.30;60.20
49379;DHT22;35254;47.990;-1.608;2023-06-14T04:26:09;25.30;60.00
49379;DHT22;35254;47.990;-1.608;2023-06-14T04:28:36;25.30;59.90
49379;DHT22;35254;47.990;-1.608;2023-06-14T04:31:06;25.30;59.90
49379;DHT22;35254;47.990;-1.608;2023-06-14T04:33:37;25.30;60.10
49379;DHT22;35254;47.990;-1.608;2023-06-14T04:36:10;25.30;59.50
49379;DHT22;35254;47.990;-1.608;2023-06-14T04:38:37;25.30;59.70
49379;DHT22;35254;47.990;-1.608;2023-06-14T04:41:03;25.30;59.60
49379;DHT22;35254;47.990;-1.608;2023-06-14T04:43:28;25.30;59.40
49379;DHT22;35254;47.990;-1.608;2023-06-14T04:45:54;25.30;59.60
49379;DHT22;35254;47.990;-1.608;2023-06-14T04:48:22;25.30;59.30
49379;DHT22;35254;47.990;-1.608;2023-06-14T04:50:48;25.30;59.40
49379;DHT22;35254;47.990;-1.608;2023-06-14T04:53:18;25.30;59.50
49379;DHT22;35254;47.990;-1.608;2023-06-14T04:55:47;25.20;59.40
49379;DHT22;35254;47.990;-1.608;2023-06-14T04:58:12;25.20;59.80
49379;DHT22;35254;47.990;-1.608;2023-06-14T05:00:38;25.20;59.50
49379;DHT22;35254;47.990;-1.608;2023-06-14T05:03:04;25.20;59.50
49379;DHT22;35254;47.990;-1.608;2023-06-14T05:05:31;25.20;59.50
49379;DHT22;35254;47.990;-1.608;2023-06-14T05:07:57;25.20;59.60
49379;DHT22;35254;47.990;-1.608;2023-06-14T05:10:24;25.20;59.30
49379;DHT22;35254;47.990;-1.608;2023-06-14T05:12:50;25.20;59.60
49379;DHT22;35254;47.990;-1.608;2023-06-14T05:15:18;25.20;59.60
49379;DHT22;35254;47.990;-1.608;2023-06-14T05:17:45;25.20;59.50
49379;DHT22;35254;47.990;-1.608;2023-06-14T05:20:13;25.20;59.50
49379;DHT22;35254;47.990;-1.608;2023-06-14T05:22:39;25.20;59.60
49379;DHT22;35254;47.990;-1.608;2023-06-14T05:25:04;25.20;59.60
49379;DHT22;35254;47.990;-1.608;2023-06-14T05:27:30;25.20;59.60
49379;DHT22;35254;47.990;-1.608;2023-06-14T05:29:56;25.20;59.40
49379;DHT22;35254;47.990;-1.608;2023-06-14T05:32:24;25.20;59.70
49379;DHT22;35254;47.990;-1.608;2023-06-14T05:34:49;25.20;59.50
49379;DHT22;35254;47.990;-1.608;2023-06-14T05:37:15;25.20;59.80
49379;DHT22;35254;47.990;-1.608;2023-06-14T05:39:42;25.20;59.60
49379;DHT22;35254;47.990;-1.608;2023-06-14T05:42:08;25.20;60.00
49379;DHT22;35254;47.990;-1.608;2023-06-14T05:44:33;25.20;59.90
49379;DHT22;35254;47.990;-1.608;2023-06-14T05:46:59;25.20;60.10
49379;DHT22;35254;47.990;-1.608;2023-06-14T05:49:25;25.20;59.80
49379;DHT22;35254;47.990;-1.608;2023-06-14T05:51:50;25.20;60.30
49379;DHT22;35254;47.990;-1.608;2023-06-14T05:54:16;25.20;59.90
49379;DHT22;35254;47.990;-1.608;2023-06-14T05:56:42;25.20;60.00
49379;DHT22;35254;47.990;-1.608;2023-06-14T05:59:07;25.20;60.10
49379;DHT22;35254;47.990;-1.608;2023-06-14T06:01:33;25.20;60.10
49379;DHT22;35254;47.990;-1.608;2023-06-14T06:04:02;25.20;60.00
49379;DHT22;35254;47.990;-1.608;2023-06-14T06:06:28;25.20;60.00
49379;DHT22;35254;47.990;-1.608;2023-06-14T06:08:54;25.10;60.00
49379;DHT22;35254;47.990;-1.608;2023-06-14T06:11:19;25.10;60.30
49379;DHT22;35254;47.990;-1.608;2023-06-14T06:13:45;25.10;60.20
49379;DHT22;35254;47.990;-1.608;2023-06-14T06:16:11;25.10;60.10
49379;DHT22;35254;47.990;-1.608;2023-06-14T06:18:36;25.10;60.40
49379;DHT22;35254;47.990;-1.608;2023-06-14T06:21:04;25.10;60.20
49379;DHT22;35254;47.990;-1.608;2023-06-14T06:23:29;25.10;60.60
49379;DHT22;35254;47.990;-1.608;2023-06-14T06:25:55;25.10;60.40
49379;DHT22;35254;47.990;-1.608;2023-06-14T06:28:21;25.10;60.30
49379;DHT22;35254;47.990;-1.608;2023-06-14T06:30:46;25.10;60.70
49379;DHT22;35254;47.990;-1.608;2023-06-14T06:33:12;25.10;60.70
49379;DHT22;35254;47.990;-1.608;2023-06-14T06:35:38;25.10;60.60
49379;DHT22;35254;47.990;-1.608;2023-06-14T06:38:04;25.10;60.60
49379;DHT22;35254;47.990;-1.608;2023-06-14T06:40:29;25.10;60.60
49379;DHT22;35254;47.990;-1.608;2023-06-14T06:42:55;25.10;60.80
49379;DHT22;35254;47.990;-1.608;2023-06-14T06:45:21;25.10;60.90
49379;DHT22;35254;47.990;-1.608;2023-06-14T06:47:48;25.10;61.10
49379;DHT22;35254;47.990;-1.608;2023-06-14T06:50:14;25.00;60.90
49379;DHT22;35254;47.990;-1.608;2023-06-14T06:52:40;25.00;61.10
49379;DHT22;35254;47.990;-1.608;2023-06-14T06:55:06;25.00;61.10
49379;DHT22;35254;47.990;-1.608;2023-06-14T06:57:32;25.00;61.30
49379;DHT22;35254;47.990;-1.608;2023-06-14T06:59:58;25.00;61.80
49379;DHT22;35254;47.990;-1.608;2023-06-14T07:02:23;25.00;62.00
49379;DHT22;35254;47.990;-1.608;2023-06-14T07:04:49;25.00;62.00
49379;DHT22;35254;47.990;-1.608;2023-06-14T07:07:14;25.00;62.10
49379;DHT22;35254;47.990;-1.608;2023-06-14T07:09:40;25.00;62.70
49379;DHT22;35254;47.990;-1.608;2023-06-14T07:12:07;25.00;61.70
49379;DHT22;35254;47.990;-1.608;2023-06-14T07:14:33;25.00;61.50
49379;DHT22;35254;47.990;-1.608;2023-06-14T07:16:59;25.00;62.50
49379;DHT22;35254;47.990;-1.608;2023-06-14T07:19:24;25.10;63.50
49379;DHT22;35254;47.990;-1.608;2023-06-14T07:21:50;25.00;62.00
49379;DHT22;35254;47.990;-1.608;2023-06-14T07:24:16;25.00;60.10
49379;DHT22;35254;47.990;-1.608;2023-06-14T07:26:41;25.00;59.90
49379;DHT22;35254;47.990;-1.608;2023-06-14T07:29:07;25.10;60.00
49379;DHT22;35254;47.990;-1.608;2023-06-14T07:31:32;25.10;59.80
49379;DHT22;35254;47.990;-1.608;2023-06-14T07:33:58;25.10;59.70
49379;DHT22;35254;47.990;-1.608;2023-06-14T07:36:24;25.10;60.00
49379;DHT22;35254;47.990;-1.608;2023-06-14T07:38:50;25.10;61.00
49379;DHT22;35254;47.990;-1.608;2023-06-14T07:41:16;25.10;61.90
49379;DHT22;35254;47.990;-1.608;2023-06-14T07:43:42;25.10;61.80
49379;DHT22;35254;47.990;-1.608;2023-06-14T07:46:07;25.10;60.50
49379;DHT22;35254;47.990;-1.608;2023-06-14T07:48:34;25.10;61.50
49379;DHT22;35254;47.990;-1.608;2023-06-14T07:51:00;25.10;61.90
49379;DHT22;35254;47.990;-1.608;2023-06-14T07:53:26;25.10;61.40
49379;DHT22;35254;47.990;-1.608;2023-06-14T07:55:52;25.10;60.20
49379;DHT22;35254;47.990;-1.608;2023-06-14T07:58:17;25.10;59.80
49379;DHT22;35254;47.990;-1.608;2023-06-14T08:00:43;25.20;59.70
49379;DHT22;35254;47.990;-1.608;2023-06-14T08:03:08;25.10;59.80
49379;DHT22;35254;47.990;-1.608;2023-06-14T08:05:35;25.20;60.20
49379;DHT22;35254;47.990;-1.608;2023-06-14T08:08:01;25.20;60.00
49379;DHT22;35254;47.990;-1.608;2023-06-14T08:10:26;25.20;60.30
49379;DHT22;35254;47.990;-1.608;2023-06-14T08:12:52;25.20;60.20
49379;DHT22;35254;47.990;-1.608;2023-06-14T08:15:18;25.20;60.00
49379;DHT22;35254;47.990;-1.608;2023-06-14T08:17:44;25.20;59.90
49379;DHT22;35254;47.990;-1.608;2023-06-14T08:20:10;25.20;59.80
49379;DHT22;35254;47.990;-1.608;2023-06-14T08:22:36;25.20;59.80
49379;DHT22;35254;47.990;-1.608;2023-06-14T08:25:02;25.20;59.80
49379;DHT22;35254;47.990;-1.608;2023-06-14T08:27:29;25.30;59.70
49379;DHT22;35254;47.990;-1.608;2023-06-14T08:29:55;25.20;59.80
49379;DHT22;35254;47.990;-1.608;2023-06-14T08:32:21;25.20;59.80
49379;DHT22;35254;47.990;-1.608;2023-06-14T08:34:47;25.20;59.70
49379;DHT22;35254;47.990;-1.608;2023-06-14T08:37:13;25.20;59.80
49379;DHT22;35254;47.990;-1.608;2023-06-14T08:39:39;25.20;59.70
49379;DHT22;35254;47.990;-1.608;2023-06-14T08:42:07;25.20;59.90
49379;DHT22;35254;47.990;-1.608;2023-06-14T08:44:33;25.20;59.90
49379;DHT22;35254;47.990;-1.608;2023-06-14T08:47:00;25.20;60.20
49379;DHT22;35254;47.990;-1.608;2023-06-14T08:49:26;25.20;60.20
49379;DHT22;35254;47.990;-1.608;2023-06-14T08:51:58;25.20;60.50
49379;DHT22;35254;47.990;-1.608;2023-06-14T08:54:27;25.20;60.50
49379;DHT22;35254;47.990;-1.608;2023-06-14T08:56:54;25.20;60.60
49379;DHT22;35254;47.990;-1.608;2023-06-14T08:59:27;25.20;60.60
49379;DHT22;35254;47.990;-1.608;2023-06-14T09:01:54;25.20;60.70
49379;DHT22;35254;47.990;-1.608;2023-06-14T09:04:21;25.20;60.70
49379;DHT22;35254;47.990;-1.608;2023-06-14T09:06:48;25.20;60.60
49379;DHT22;35254;47.990;-1.608;2023-06-14T09:09:20;25.20;60.50
49379;DHT22;35254;47.990;-1.608;2023-06-14T09:11:46;25.20;60.50
49379;DHT22;35254;47.990;-1.608;2023-06-14T09:14:12;25.20;60.70
49379;DHT22;35254;47.990;-1.608;2023-06-14T09:16:38;25.20;60.70
49379;DHT22;35254;47.990;-1.608;2023-06-14T09:19:04;25.20;60.60
49379;DHT22;35254;47.990;-1.608;2023-06-14T09:21:34;25.20;60.50
49379;DHT22;35254;47.990;-1.608;2023-06-14T09:24:01;25.20;60.50
49379;DHT22;35254;47.990;-1.608;2023-06-14T09:26:28;25.20;60.50
49379;DHT22;35254;47.990;-1.608;2023-06-14T09:28:53;25.20;60.50
49379;DHT22;35254;47.990;-1.608;2023-06-14T09:31:21;25.20;60.70
49379;DHT22;35254;47.990;-1.608;2023-06-14T09:33:51;25.20;60.70
49379;DHT22;35254;47.990;-1.608;2023-06-14T09:36:20;25.20;60.70
49379;DHT22;35254;47.990;-1.608;2023-06-14T09:39:00;25.20;60.60
49379;DHT22;35254;47.990;-1.608;2023-06-14T09:41:37;25.20;60.60
49379;DHT22;35254;47.990;-1.608;2023-06-14T09:44:05;25.20;60.70
49379;DHT22;35254;47.990;-1.608;2023-06-14T09:46:33;25.30;60.80
49379;DHT22;35254;47.990;-1.608;2023-06-14T09:48:59;25.20;60.80
49379;DHT22;35254;47.990;-1.608;2023-06-14T09:51:26;25.20;60.90
49379;DHT22;35254;47.990;-1.608;2023-06-14T09:53:55;25.20;61.90
49379;DHT22;35254;47.990;-1.608;2023-06-14T09:56:27;25.20;60.80
49379;DHT22;35254;47.990;-1.608;2023-06-14T09:58:57;25.20;61.00
49379;DHT22;35254;47.990;-1.608;2023-06-14T10:01:25;25.20;61.00
49379;DHT22;35254;47.990;-1.608;2023-06-14T10:04:06;25.30;60.80
49379;DHT22;35254;47.990;-1.608;2023-06-14T10:06:43;25.20;60.80
49379;DHT22;35254;47.990;-1.608;2023-06-14T10:09:10;25.30;60.90
49379;DHT22;35254;47.990;-1.608;2023-06-14T10:11:36;25.20;60.90
49379;DHT22;35254;47.990;-1.608;2023-06-14T10:14:08;25.30;60.90
49379;DHT22;35254;47.990;-1.608;2023-06-14T10:16:46;25.20;60.90
49379;DHT22;35254;47.990;-1.608;2023-06-14T10:19:47;25.30;61.10
49379;DHT22;35254;47.990;-1.608;2023-06-14T10:24:50;25.30;60.80
49379;DHT22;35254;47.990;-1.608;2023-06-14T10:27:16;25.30;61.10
49379;DHT22;35254;47.990;-1.608;2023-06-14T10:32:18;25.30;61.10
49379;DHT22;35254;47.990;-1.608;2023-06-14T10:35:06;25.30;61.00
49379;DHT22;35254;47.990;-1.608;2023-06-14T10:37:32;25.20;61.10
49379;DHT22;35254;47.990;-1.608;2023-06-14T10:39:58;25.30;61.00
49379;DHT22;35254;47.990;-1.608;2023-06-14T10:42:29;25.20;60.80
49379;DHT22;35254;47.990;-1.608;2023-06-14T10:44:57;25.20;60.90
49379;DHT22;35254;47.990;-1.608;2023-06-14T10:47:32;25.30;60.70
49379;DHT22;35254;47.990;-1.608;2023-06-14T10:50:10;25.30;60.70
49379;DHT22;35254;47.990;-1.608;2023-06-14T10:52:42;25.30;60.90
49379;DHT22;35254;47.990;-1.608;2023-06-14T10:55:10;25.30;60.80
49379;DHT22;35254;47.990;-1.608;2023-06-14T10:57:46;25.30;60.80
49379;DHT22;35254;47.990;-1.608;2023-06-14T11:00:14;25.30;60.90
49379;DHT22;35254;47.990;-1.608;2023-06-14T11:05:29;25.30;60.90
49379;DHT22;35254;47.990;-1.608;2023-06-14T11:10:43;25.40;61.00
49379;DHT22;35254;47.990;-1.608;2023-06-14T11:13:11;25.40;60.90
49379;DHT22;35254;47.990;-1.608;2023-06-14T11:15:37;25.40;60.70
49379;DHT22;35254;47.990;-1.608;2023-06-14T11:18:07;25.40;60.80
49379;DHT22;35254;47.990;-1.608;2023-06-14T11:20:35;25.40;60.80
49379;DHT22;35254;47.990;-1.608;2023-06-14T11:23:02;25.30;60.80
49379;DHT22;35254;47.990;-1.608;2023-06-14T11:25:28;25.40;61.00
49379;DHT22;35254;47.990;-1.608;2023-06-14T11:27:54;25.40;60.80
49379;DHT22;35254;47.990;-1.608;2023-06-14T11:30:21;25.40;60.90
49379;DHT22;35254;47.990;-1.608;2023-06-14T11:32:47;25.40;61.10
49379;DHT22;35254;47.990;-1.608;2023-06-14T11:35:15;25.40;61.10
49379;DHT22;35254;47.990;-1.608;2023-06-14T11:37:41;25.50;61.70
49379;DHT22;35254;47.990;-1.608;2023-06-14T11:40:08;25.40;61.40
49379;DHT22;35254;47.990;-1.608;2023-06-14T11:42:36;25.40;61.20
49379;DHT22;35254;47.990;-1.608;2023-06-14T11:45:02;25.40;60.90
49379;DHT22;35254;47.990;-1.608;2023-06-14T11:47:32;25.40;60.90
49379;DHT22;35254;47.990;-1.608;2023-06-14T11:50:04;25.40;60.90
49379;DHT22;35254;47.990;-1.608;2023-06-14T11:52:31;25.50;60.80
49379;DHT22;35254;47.990;-1.608;2023-06-14T11:54:57;25.50;60.70
49379;DHT22;35254;47.990;-1.608;2023-06-14T11:57:23;25.60;60.90
49379;DHT22;35254;47.990;-1.608;2023-06-14T11:59:49;25.50;61.30
49379;DHT22;35254;47.990;-1.608;2023-06-14T12:02:18;25.60;61.90
49379;DHT22;35254;47.990;-1.608;2023-06-14T12:04:47;25.60;62.40
49379;DHT22;35254;47.990;-1.608;2023-06-14T12:07:15;25.60;63.90
49379;DHT22;35254;47.990;-1.608;2023-06-14T12:09:41;25.70;62.70
49379;DHT22;35254;47.990;-1.608;2023-06-14T12:12:12;25.70;62.60
49379;DHT22;35254;47.990;-1.608;2023-06-14T12:14:39;25.70;62.40
49379;DHT22;35254;47.990;-1.608;2023-06-14T12:17:07;25.70;62.10
49379;DHT22;35254;47.990;-1.608;2023-06-14T12:19:33;25.70;62.20
49379;DHT22;35254;47.990;-1.608;2023-06-14T12:22:04;25.70;62.20
49379;DHT22;35254;47.990;-1.608;2023-06-14T12:24:32;25.70;62.10
49379;DHT22;35254;47.990;-1.608;2023-06-14T12:26:58;25.70;62.00
49379;DHT22;35254;47.990;-1.608;2023-06-14T12:29:30;25.70;61.70
49379;DHT22;35254;47.990;-1.608;2023-06-14T12:31:56;25.70;61.70
49379;DHT22;35254;47.990;-1.608;2023-06-14T12:34:28;25.70;61.60
49379;DHT22;35254;47.990;-1.608;2023-06-14T12:36:54;25.70;61.60
49379;DHT22;35254;47.990;-1.608;2023-06-14T12:39:20;25.70;61.40
49379;DHT22;35254;47.990;-1.608;2023-06-14T12:41:46;25.70;61.40
49379;DHT22;35254;47.990;-1.608;2023-06-14T12:44:14;25.70;61.30
49379;DHT22;35254;47.990;-1.608;2023-06-14T12:46:44;25.80;61.30
49379;DHT22;35254;47.990;-1.608;2023-06-14T12:49:10;25.70;61.20
49379;DHT22;35254;47.990;-1.608;2023-06-14T12:51:37;25.80;61.70
49379;DHT22;35254;47.990;-1.608;2023-06-14T12:54:03;25.70;61.80
49379;DHT22;35254;47.990;-1.608;2023-06-14T12:56:28;25.70;61.80
49379;DHT22;35254;47.990;-1.608;2023-06-14T12:58:54;25.70;61.80
49379;DHT22;35254;47.990;-1.608;2023-06-14T13:01:20;25.70;61.90
49379;DHT22;35254;47.990;-1.608;2023-06-14T13:03:48;25.70;61.90
49379;DHT22;35254;47.990;-1.608;2023-06-14T13:06:16;25.70;61.90
49379;DHT22;35254;47.990;-1.608;2023-06-14T13:08:42;25.70;61.80
49379;DHT22;35254;47.990;-1.608;2023-06-14T13:11:07;25.70;61.60
49379;DHT22;35254;47.990;-1.608;2023-06-14T13:13:33;25.70;61.60
49379;DHT22;35254;47.990;-1.608;2023-06-14T13:15:59;25.70;61.80
49379;DHT22;35254;47.990;-1.608;2023-06-14T13:18:26;25.70;61.60
49379;DHT22;35254;47.990;-1.608;2023-06-14T13:20:56;25.70;61.80
49379;DHT22;35254;47.990;-1.608;2023-06-14T13:23:21;25.70;61.70
49379;DHT22;35254;47.990;-1.608;2023-06-14T13:25:47;25.80;61.60
49379;DHT22;35254;47.990;-1.608;2023-06-14T13:28:15;25.80;61.70
49379;DHT22;35254;47.990;-1.608;2023-06-14T13:30:40;25.80;61.60
49379;DHT22;35254;47.990;-1.608;2023-06-14T13:33:06;25.80;61.90
49379;DHT22;35254;47.990;-1.608;2023-06-14T13:35:32;25.70;61.70
49379;DHT22;35254;47.990;-1.608;2023-06-14T13:37:57;25.70;61.80
49379;DHT22;35254;47.990;-1.608;2023-06-14T13:40:23;25.80;61.70
49379;DHT22;35254;47.990;-1.608;2023-06-14T13:42:49;25.80;61.60
49379;DHT22;35254;47.990;-1.608;2023-06-14T13:45:15;25.80;61.40
49379;DHT22;35254;47.990;-1.608;2023-06-14T13:47:41;25.80;61.80
49379;DHT22;35254;47.990;-1.608;2023-06-14T13:50:07;25.80;62.00
49379;DHT22;35254;47.990;-1.608;2023-06-14T13:52:33;25.80;61.50
49379;DHT22;35254;47.990;-1.608;2023-06-14T13:54:58;25.80;61.70
49379;DHT22;35254;47.990;-1.608;2023-06-14T13:57:25;25.80;61.80
49379;DHT22;35254;47.990;-1.608;2023-06-14T13:59:51;25.80;62.00
49379;DHT22;35254;47.990;-1.608;2023-06-14T14:02:18;25.80;62.40
49379;DHT22;35254;47.990;-1.608;2023-06-14T14:04:45;25.80;62.60
49379;DHT22;35254;47.990;-1.608;2023-06-14T14:07:16;25.90;62.70
49379;DHT22;35254;47.990;-1.608;2023-06-14T14:09:42;25.90;62.40
49379;DHT22;35254;47.990;-1.608;2023-06-14T14:12:08;25.80;62.20
49379;DHT22;35254;47.990;-1.608;2023-06-14T14:14:34;25.90;62.70
49379;DHT22;35254;47.990;-1.608;2023-06-14T14:17:00;25.80;61.60
49379;DHT22;35254;47.990;-1.608;2023-06-14T14:19:25;25.90;62.40
49379;DHT22;35254;47.990;-1.608;2023-06-14T14:21:51;25.90;61.30
49379;DHT22;35254;47.990;-1.608;2023-06-14T14:24:18;25.90;61.80
49379;DHT22;35254;47.990;-1.608;2023-06-14T14:26:44;25.90;62.00
49379;DHT22;35254;47.990;-1.608;2023-06-14T14:29:12;25.90;61.30
49379;DHT22;35254;47.990;-1.608;2023-06-14T14:31:38;25.90;61.90
49379;DHT22;35254;47.990;-1.608;2023-06-14T14:34:04;25.90;61.40
49379;DHT22;35254;47.990;-1.608;2023-06-14T14:36:30;25.90;61.30
49379;DHT22;35254;47.990;-1.608;2023-06-14T14:38:56;25.90;62.20
49379;DHT22;35254;47.990;-1.608;2023-06-14T14:41:22;26.00;62.00
49379;DHT22;35254;47.990;-1.608;2023-06-14T14:43:47;25.90;62.20
49379;DHT22;35254;47.990;-1.608;2023-06-14T14:46:13;26.00;62.00
49379;DHT22;35254;47.990;-1.608;2023-06-14T14:48:39;25.90;61.60
49379;DHT22;35254;47.990;-1.608;2023-06-14T14:51:04;26.00;61.10
49379;DHT22;35254;47.990;-1.608;2023-06-14T14:53:30;26.00;62.10
49379;DHT22;35254;47.990;-1.608;2023-06-14T14:55:56;26.00;62.10
49379;DHT22;35254;47.990;-1.608;2023-06-14T14:58:21;26.00;61.90
49379;DHT22;35254;47.990;-1.608;2023-06-14T15:00:47;26.00;61.90
49379;DHT22;35254;47.990;-1.608;2023-06-14T15:03:13;26.00;62.00
49379;DHT22;35254;47.990;-1.608;2023-06-14T15:05:54;26.00;61.60
49379;DHT22;35254;47.990;-1.608;2023-06-14T15:08:21;26.00;62.20
49379;DHT22;35254;47.990;-1.608;2023-06-14T15:10:47;26.00;61.90
49379;DHT22;35254;47.990;-1.608;2023-06-14T15:13:14;26.00;62.00
49379;DHT22;35254;47.990;-1.608;2023-06-14T15:15:39;26.00;61.90
49379;DHT22;35254;47.990;-1.608;2023-06-14T15:18:05;26.00;61.80
49379;DHT22;35254;47.990;-1.608;2023-06-14T15:20:31;26.00;61.30
49379;DHT22;35254;47.990;-1.608;2023-06-14T15:22:57;26.00;61.60
49379;DHT22;35254;47.990;-1.608;2023-06-14T15:25:27;26.00;62.10
49379;DHT22;35254;47.990;-1.608;2023-06-14T15:27:53;26.10;62.10
49379;DHT22;35254;47.990;-1.608;2023-06-14T15:30:19;26.00;62.40
49379;DHT22;35254;47.990;-1.608;2023-06-14T15:32:45;26.10;62.50